createdAt,value
2022-12-14T00:00:04.922Z,100059.53
2022-12-14T00:03:16.380Z,100062.00
2022-12-14T00:06:27.095Z,100049.78
2022-12-14T00:09:29.240Z,100047.28
2022-12-14T00:12:31.587Z,100049.91
2022-12-14T00:15:34.044Z,100053.87
2022-12-14T00:18:36.623Z,100050.41
2022-12-14T00:21:38.780Z,100035.19
2022-12-14T00:24:41.912Z,100040.25
2022-12-14T00:27:45.617Z,100036.03
2022-12-14T00:30:48.301Z,100036.09
2022-12-14T00:33:51.289Z,100046.44
2022-12-14T00:36:54.650Z,100047.81
2022-12-14T00:39:56.734Z,100047.03
2022-12-14T00:42:59.636Z,100053.81
2022-12-14T00:46:01.859Z,100049.72
2022-12-14T00:49:04.446Z,100047.56
2022-12-14T00:52:06.559Z,100050.78
2022-12-14T00:55:09.350Z,100048.34
2022-12-14T00:58:13.227Z,100061.09
2022-12-14T01:01:15.669Z,100057.66
2022-12-14T01:04:17.983Z,100058.69
2022-12-14T01:07:20.426Z,100061.63
2022-12-14T01:10:24.189Z,100057.44
2022-12-14T01:13:26.759Z,100076.50
2022-12-14T01:16:29.257Z,100057.37
2022-12-14T01:19:31.876Z,100063.78
2022-12-14T01:22:34.041Z,100064.91
2022-12-14T01:25:36.478Z,100065.94
2022-12-14T01:28:38.754Z,100072.16
2022-12-14T01:31:41.912Z,100075.16
2022-12-14T01:34:44.170Z,100067.63
2022-12-14T01:37:49.098Z,100067.28
2022-12-14T01:40:57.645Z,100072.75
2022-12-14T01:44:24.679Z,100071.97
2022-12-14T01:47:34.362Z,100062.47
2022-12-14T01:50:43.876Z,100058.22
2022-12-14T01:53:46.897Z,100057.69
2022-12-14T01:56:49.376Z,100045.59
2022-12-14T01:59:52.141Z,100045.84
2022-12-14T02:03:05.493Z,100044.16
2022-12-14T02:06:17.037Z,100036.87
2022-12-14T02:09:25.454Z,100034.47
2022-12-14T02:12:41.086Z,100043.91
2022-12-14T02:15:43.985Z,100033.47
2022-12-14T02:18:46.444Z,100039.44
2022-12-14T02:21:48.431Z,100035.22
2022-12-14T02:25:08.123Z,100036.03
2022-12-14T02:28:16.224Z,100030.84
2022-12-14T02:31:37.539Z,100032.72
2022-12-14T02:34:52.609Z,100034.53
2022-12-14T02:38:16.793Z,100026.16
2022-12-14T02:41:24.964Z,100033.03
2022-12-14T02:45:04.896Z,100012.22
2022-12-14T02:48:07.002Z,100009.56
2022-12-14T02:52:07.958Z,100004.22
2022-12-14T02:55:21.395Z,100007.44
2022-12-14T02:58:29.121Z,100009.47
2022-12-14T03:01:31.477Z,100007.84
2022-12-14T03:04:45.842Z,100010.50
2022-12-14T03:07:52.772Z,99993.53
2022-12-14T03:10:59.757Z,99989.91
2022-12-14T03:14:10.086Z,99997.47
2022-12-14T03:17:19.843Z,99995.00
2022-12-14T03:20:25.651Z,99990.94
2022-12-14T03:23:33.668Z,99983.31
2022-12-14T03:26:56.581Z,99989.16
2022-12-14T03:30:09.685Z,99994.78
2022-12-14T03:33:17.061Z,99995.47
2022-12-14T03:36:42.393Z,99988.53
2022-12-14T03:39:46.350Z,99988.50
2022-12-14T03:43:02.961Z,99980.72
2022-12-14T03:46:11.671Z,99973.19
2022-12-14T03:49:19.246Z,99972.19
2022-12-14T03:52:43.753Z,99976.16
2022-12-14T03:56:04.241Z,99968.16
2022-12-14T03:59:18.043Z,99973.13
2022-12-14T04:02:36.275Z,99965.22
2022-12-14T04:05:51.980Z,99956.69
2022-12-14T04:09:04.383Z,99941.84
2022-12-14T04:12:34.840Z,99945.22
2022-12-14T04:15:57.757Z,99950.66
2022-12-14T04:19:05.383Z,99959.31
2022-12-14T04:22:16.905Z,99958.50
2022-12-14T04:25:44.475Z,99954.81
2022-12-14T04:29:20.924Z,99946.97
2022-12-14T04:32:26.252Z,99940.13
2022-12-14T04:35:36.089Z,99931.09
2022-12-14T04:38:42.462Z,99925.66
2022-12-14T04:41:50.174Z,99921.56
2022-12-14T04:44:56.111Z,99919.13
2022-12-14T04:48:23.302Z,99916.34
2022-12-14T04:51:38.968Z,99903.63
2022-12-14T04:54:54.489Z,99896.00
2022-12-14T04:58:02.036Z,99890.81
2022-12-14T05:01:40.373Z,99887.63
2022-12-14T05:04:58.938Z,99903.84
2022-12-14T05:08:36.393Z,99905.28
2022-12-14T05:11:53.564Z,99897.78
2022-12-14T05:15:03.324Z,99902.63
2022-12-14T05:18:07.034Z,99912.94
2022-12-14T05:21:30.109Z,99915.09
2022-12-14T05:24:32.813Z,99916.41
2022-12-14T05:27:35.074Z,99912.72
2022-12-14T05:30:38.048Z,99907.72
2022-12-14T05:33:40.274Z,99897.31
2022-12-14T05:36:42.654Z,99889.50
2022-12-14T05:39:44.788Z,99886.78
2022-12-14T05:42:52.336Z,99883.38
2022-12-14T05:46:02.108Z,99880.06
2022-12-14T05:49:04.580Z,99884.06
2022-12-14T05:52:07.149Z,99892.16
2022-12-14T05:55:09.687Z,99901.34
2022-12-14T05:58:11.761Z,99899.25
2022-12-14T06:01:19.102Z,99888.13
2022-12-14T06:04:22.307Z,99876.19
2022-12-14T06:07:27.927Z,99865.25
2022-12-14T06:10:31.871Z,99865.88
2022-12-14T06:13:38.425Z,99847.66
2022-12-14T06:16:42.718Z,99850.91
2022-12-14T06:19:50.077Z,99842.03
2022-12-14T06:22:56.595Z,99859.41
2022-12-14T06:25:58.717Z,99858.03
2022-12-14T06:29:01.582Z,99856.50
2022-12-14T06:32:03.792Z,99863.28
2022-12-14T06:35:07.056Z,99865.47
2022-12-14T06:38:09.367Z,99851.00
2022-12-14T06:41:11.906Z,99844.88
2022-12-14T06:44:14.716Z,99855.91
2022-12-14T06:47:17.403Z,99856.75
2022-12-14T06:50:19.763Z,99857.28
2022-12-14T06:53:22.299Z,99865.00
2022-12-14T06:56:27.009Z,99859.22
2022-12-14T06:59:30.337Z,99851.88
2022-12-14T07:02:32.939Z,99848.87
2022-12-14T07:05:36.104Z,99839.91
2022-12-14T07:08:39.349Z,99837.97
2022-12-14T07:11:42.228Z,99831.00
2022-12-14T07:14:44.369Z,99838.88
2022-12-14T07:17:46.865Z,99843.72
2022-12-14T07:21:05.672Z,99837.91
2022-12-14T07:24:09.144Z,99824.78
2022-12-14T07:27:11.761Z,99818.84
2022-12-14T07:30:14.567Z,99830.72
2022-12-14T07:33:16.743Z,99827.06
2022-12-14T07:36:20.788Z,99819.13
2022-12-14T07:39:23.009Z,99817.19
2022-12-14T07:42:25.455Z,99830.09
2022-12-14T07:45:27.637Z,99831.06
2022-12-14T07:48:30.519Z,99842.03
2022-12-14T07:51:36.126Z,99842.94
2022-12-14T07:54:38.548Z,99850.00
2022-12-14T07:57:40.668Z,99844.62
2022-12-14T08:00:43.109Z,99856.41
2022-12-14T08:03:48.072Z,99851.44
2022-12-14T08:06:50.392Z,99842.03
2022-12-14T08:09:52.870Z,99843.88
2022-12-14T08:12:55.087Z,99845.31
2022-12-14T08:16:02.826Z,99851.28
2022-12-14T08:19:05.040Z,99843.72
2022-12-14T08:22:07.601Z,99843.56
2022-12-14T08:25:10.360Z,99835.75
2022-12-14T08:28:13.266Z,99843.19
2022-12-14T08:31:18.274Z,99836.25
2022-12-14T08:34:22.887Z,99836.91
2022-12-14T08:37:25.215Z,99846.78
2022-12-14T08:40:29.823Z,99837.22
2022-12-14T08:43:32.927Z,99840.16
2022-12-14T08:46:37.682Z,99828.50
2022-12-14T08:49:41.516Z,99817.97
2022-12-14T08:52:48.204Z,99818.37
2022-12-14T08:55:50.362Z,99804.41
2022-12-14T08:58:52.990Z,99800.00
2022-12-14T09:01:55.478Z,99795.25
2022-12-14T09:04:58.184Z,99789.34
2022-12-14T09:08:02.748Z,99780.56
2022-12-14T09:11:06.310Z,99791.91
2022-12-14T09:14:08.525Z,99793.22
2022-12-14T09:17:11.013Z,99797.09
2022-12-14T09:20:14.139Z,99791.28
2022-12-14T09:23:16.495Z,99797.69
2022-12-14T09:26:22.868Z,99795.72
2022-12-14T09:29:29.807Z,99789.31
2022-12-14T09:32:32.063Z,99788.66
2022-12-14T09:35:37.624Z,99798.22
2022-12-14T09:38:43.129Z,99790.97
2022-12-14T09:42:13.853Z,99792.03
2022-12-14T09:45:24.871Z,99774.28
2022-12-14T09:48:28.063Z,99764.28
2022-12-14T09:51:35.840Z,99755.91
2022-12-14T09:54:39.433Z,99750.03
2022-12-14T09:57:43.480Z,99749.06
2022-12-14T10:00:55.504Z,99732.78
2022-12-14T10:04:01.650Z,99728.03
2022-12-14T10:07:34.729Z,99726.59
2022-12-14T10:10:56.484Z,99734.41
2022-12-14T10:14:17.110Z,99737.31
2022-12-14T10:17:46.942Z,99733.87
2022-12-14T10:20:53.817Z,99734.75
2022-12-14T10:24:04.402Z,99732.44
2022-12-14T10:27:08.682Z,99722.31
2022-12-14T10:30:21.172Z,99718.63
2022-12-14T10:33:31.536Z,99705.00
2022-12-14T10:36:52.660Z,99689.19
2022-12-14T10:40:29.265Z,99682.00
2022-12-14T10:43:47.714Z,99684.47
2022-12-14T10:47:03.164Z,99678.69
2022-12-14T10:50:19.681Z,99677.34
2022-12-14T10:53:29.049Z,99666.59
2022-12-14T10:56:34.546Z,99664.22
2022-12-14T10:59:43.756Z,99663.13
2022-12-14T11:02:57.076Z,99659.16
2022-12-14T11:06:13.987Z,99663.34
2022-12-14T11:09:25.087Z,99658.94
2022-12-14T11:12:28.231Z,99652.44
2022-12-14T11:15:42.986Z,99655.53
2022-12-14T11:18:57.592Z,99653.62
2022-12-14T11:22:26.537Z,99653.50
2022-12-14T11:25:35.365Z,99655.19
2022-12-14T11:28:50.042Z,99642.22
2022-12-14T11:31:53.008Z,99641.09
2022-12-14T11:34:58.915Z,99633.59
2022-12-14T11:38:16.500Z,99619.78
2022-12-14T11:41:20.998Z,99617.97
2022-12-14T11:44:31.907Z,99611.00
2022-12-14T11:47:34.283Z,99606.44
2022-12-14T11:50:36.801Z,99605.22
2022-12-14T11:53:40.927Z,99593.09
2022-12-14T11:56:43.692Z,99598.34
2022-12-14T11:59:46.984Z,99599.03
2022-12-14T12:03:03.001Z,99584.31
2022-12-14T12:06:10.065Z,99588.00
2022-12-14T12:09:27.400Z,99581.28
2022-12-14T12:12:31.125Z,99572.56
2022-12-14T12:15:50.274Z,99564.38
2022-12-14T12:19:25.500Z,99570.47
2022-12-14T12:22:31.352Z,99555.78
2022-12-14T12:25:37.749Z,99557.88
2022-12-14T12:28:43.764Z,99553.53
2022-12-14T12:32:00.688Z,99552.00
2022-12-14T12:35:11.301Z,99543.09
2022-12-14T12:38:27.605Z,99533.72
2022-12-14T12:41:36.432Z,99525.84
2022-12-14T12:44:51.436Z,99523.94
2022-12-14T12:48:00.781Z,99520.44
2022-12-14T12:51:12.811Z,99524.00
2022-12-14T12:54:21.590Z,99516.97
2022-12-14T12:57:30.037Z,99521.37
2022-12-14T13:00:33.829Z,99509.06
2022-12-14T13:03:41.416Z,99512.34
2022-12-14T13:06:52.365Z,99507.06
2022-12-14T13:10:06.174Z,99511.06
2022-12-14T13:13:22.616Z,99505.78
2022-12-14T13:16:32.333Z,99495.53
2022-12-14T13:19:52.032Z,99491.81
2022-12-14T13:23:05.709Z,99497.31
2022-12-14T13:26:57.733Z,99495.94
2022-12-14T13:30:20.772Z,99488.44
2022-12-14T13:33:51.202Z,99482.13
2022-12-14T13:37:09.230Z,99477.25
2022-12-14T13:40:22.608Z,99475.66
2022-12-14T13:43:37.371Z,99469.25
2022-12-14T13:46:41.152Z,99469.72
2022-12-14T13:53:27.606Z,99457.25
2022-12-14T13:56:34.512Z,99451.41
2022-12-14T13:59:41.870Z,99459.00
2022-12-14T14:02:51.177Z,99446.50
2022-12-14T14:05:57.155Z,99435.78
2022-12-14T14:09:03.144Z,99434.56
2022-12-14T14:12:33.671Z,99437.78
2022-12-14T14:16:26.824Z,99436.81
2022-12-14T14:19:22.431Z,99446.06
2022-12-14T14:22:29.602Z,99444.41
2022-12-14T14:25:40.565Z,99442.13
2022-12-14T14:28:42.853Z,99427.69
2022-12-14T14:31:56.733Z,99427.56
2022-12-14T14:35:01.753Z,99423.22
2022-12-14T14:38:29.588Z,99408.94
2022-12-14T14:41:38.101Z,99411.22
2022-12-14T14:44:48.545Z,99414.03
2022-12-14T14:47:56.990Z,99411.16
2022-12-14T14:51:08.653Z,99414.50
2022-12-14T14:58:05.088Z,99417.81
2022-12-14T15:01:20.298Z,99417.75
2022-12-14T15:04:45.013Z,99408.75
2022-12-14T15:07:47.481Z,99423.53
2022-12-14T15:10:50.607Z,99416.41
2022-12-14T15:14:03.991Z,99422.37
2022-12-14T15:17:14.796Z,99413.78
2022-12-14T15:20:27.046Z,99417.56
2022-12-14T15:23:36.759Z,99420.47
2022-12-14T15:26:38.936Z,99433.06
2022-12-14T15:29:45.366Z,99428.22
2022-12-14T15:32:57.800Z,99426.66
2022-12-14T15:36:12.139Z,99415.28
2022-12-14T15:39:28.381Z,99405.56
2022-12-14T15:42:30.762Z,99396.78
2022-12-14T15:45:45.929Z,99401.16
2022-12-14T15:48:58.728Z,99410.06
2022-12-14T15:52:01.051Z,99409.09
2022-12-14T15:55:03.995Z,99412.53
2022-12-14T15:58:17.019Z,99410.62
2022-12-14T16:01:24.443Z,99409.59
2022-12-14T16:04:29.185Z,99412.13
2022-12-14T16:07:38.675Z,99408.13
2022-12-14T16:10:42.953Z,99407.56
2022-12-14T16:13:46.277Z,99393.19
2022-12-14T16:16:49.206Z,99388.34
2022-12-14T16:20:00.918Z,99382.75
2022-12-14T16:23:28.115Z,99368.75
2022-12-14T16:26:38.581Z,99365.28
2022-12-14T16:29:48.100Z,99356.44
2022-12-14T16:33:03.934Z,99355.88
2022-12-14T16:36:18.359Z,99339.97
2022-12-14T16:39:26.882Z,99334.97
2022-12-14T16:42:32.251Z,99335.63
2022-12-14T16:45:43.435Z,99329.00
2022-12-14T16:49:07.425Z,99328.44
2022-12-14T16:52:09.471Z,99318.47
2022-12-14T16:55:14.125Z,99326.41
2022-12-14T16:58:18.023Z,99322.31
2022-12-14T17:01:21.570Z,99315.66
2022-12-14T17:04:37.254Z,99298.06
2022-12-14T17:07:40.093Z,99318.00
2022-12-14T17:10:42.246Z,99319.62
2022-12-14T17:13:44.671Z,99316.28
2022-12-14T17:17:00.171Z,99315.03
2022-12-14T17:20:09.155Z,99334.50
2022-12-14T17:23:17.797Z,99332.25
2022-12-14T17:26:26.358Z,99326.88
2022-12-14T17:29:30.053Z,99326.78
2022-12-14T17:32:32.594Z,99322.94
2022-12-14T17:35:34.709Z,99333.72
2022-12-14T17:38:37.154Z,99335.31
2022-12-14T17:41:42.566Z,99330.97
2022-12-14T17:44:51.899Z,99338.31
2022-12-14T17:47:54.990Z,99339.25
2022-12-14T17:50:57.461Z,99353.41
2022-12-14T17:53:59.750Z,99343.97
2022-12-14T17:57:02.208Z,99339.91
2022-12-14T18:00:23.494Z,99329.84
2022-12-14T18:03:26.829Z,99325.47
2022-12-14T18:06:29.089Z,99315.63
2022-12-14T18:09:31.579Z,99316.94
2022-12-14T18:12:33.708Z,99306.50
2022-12-14T18:15:49.913Z,99310.19
2022-12-14T18:18:58.051Z,99313.53
2022-12-14T18:22:00.494Z,99305.81
2022-12-14T18:25:02.663Z,99304.38
2022-12-14T18:28:06.748Z,99304.31
2022-12-14T18:31:19.551Z,99302.63
2022-12-14T18:34:22.099Z,99300.41
2022-12-14T18:37:27.250Z,99298.59
2022-12-14T18:40:33.773Z,99306.34
2022-12-14T18:43:41.718Z,99297.94
2022-12-14T18:46:46.042Z,99299.13
2022-12-14T18:49:51.734Z,99288.53
2022-12-14T18:52:57.515Z,99274.59
2022-12-14T18:56:01.205Z,99268.47
2022-12-14T18:59:03.636Z,99266.84
2022-12-14T19:02:06.521Z,99271.69
2022-12-14T19:05:10.294Z,99273.69
2022-12-14T19:08:12.972Z,99282.22
2022-12-14T19:11:28.358Z,99285.25
2022-12-14T19:14:30.557Z,99273.97
2022-12-14T19:17:33.220Z,99271.06
2022-12-14T19:20:35.339Z,99262.19
2022-12-14T19:23:37.859Z,99263.81
2022-12-14T19:26:40.087Z,99264.84
2022-12-14T19:29:42.498Z,99257.16
2022-12-14T19:32:44.635Z,99262.78
2022-12-14T19:35:51.873Z,99262.31
2022-12-14T19:38:53.969Z,99265.31
2022-12-14T19:41:56.422Z,99266.09
2022-12-14T19:44:58.910Z,99262.41
2022-12-14T19:48:01.543Z,99263.94
2022-12-14T19:51:05.558Z,99259.59
2022-12-14T19:54:08.182Z,99252.25
2022-12-14T19:57:10.782Z,99256.34
2022-12-14T20:00:14.506Z,99256.72
2022-12-14T20:03:18.255Z,99243.09
2022-12-14T20:06:20.658Z,99238.59
2022-12-14T20:09:23.130Z,99233.59
2022-12-14T20:12:25.480Z,99229.16
2022-12-14T20:15:28.139Z,99224.00
2022-12-14T20:18:31.477Z,99222.06
2022-12-14T20:21:34.328Z,99219.53
2022-12-14T20:24:36.769Z,99219.03
2022-12-14T20:27:40.947Z,99215.34
2022-12-14T20:30:45.975Z,99212.31
2022-12-14T20:33:49.502Z,99215.97
2022-12-14T20:36:51.695Z,99210.94
2022-12-14T20:39:54.370Z,99211.06
2022-12-14T20:42:56.468Z,99188.66
2022-12-14T20:45:58.939Z,99190.31
2022-12-14T20:49:03.806Z,99187.03
2022-12-14T20:52:06.481Z,99205.38
2022-12-14T20:55:08.853Z,99193.66
2022-12-14T20:58:11.379Z,99193.44
2022-12-14T21:01:14.068Z,99194.59
2022-12-14T21:04:16.772Z,99196.91
2022-12-14T21:07:22.880Z,99206.28
2022-12-14T21:10:28.410Z,99208.03
2022-12-14T21:13:30.935Z,99202.38
2022-12-14T21:16:33.865Z,99219.66
2022-12-14T21:19:36.350Z,99212.12
2022-12-14T21:22:38.826Z,99216.50
2022-12-14T21:25:41.043Z,99211.22
2022-12-14T21:28:43.471Z,99205.66
2022-12-14T21:31:46.713Z,99194.59
2022-12-14T21:34:49.852Z,99193.91
2022-12-14T21:37:52.131Z,99198.16
2022-12-14T21:41:14.117Z,99217.38
2022-12-14T21:44:16.647Z,99222.28
2022-12-14T21:47:27.956Z,99217.38
2022-12-14T21:50:30.479Z,99232.25
2022-12-14T21:53:35.411Z,99235.06
2022-12-14T21:56:58.127Z,99238.16
2022-12-14T22:00:00.678Z,99238.56
2022-12-14T22:03:02.969Z,99231.47
2022-12-14T22:06:10.034Z,99226.13
2022-12-14T22:09:12.594Z,99210.50
2022-12-14T22:12:16.533Z,99217.22
2022-12-14T22:15:18.945Z,99222.59
2022-12-14T22:18:21.426Z,99239.91
2022-12-14T22:21:23.574Z,99253.72
2022-12-14T22:24:27.985Z,99246.87
2022-12-14T22:27:30.146Z,99257.91
2022-12-14T22:30:32.628Z,99265.47
2022-12-14T22:33:34.826Z,99266.31
2022-12-14T22:36:37.278Z,99259.50
2022-12-14T22:39:39.392Z,99270.75
2022-12-14T22:42:41.885Z,99275.66
2022-12-14T22:45:44.007Z,99264.25
2022-12-14T22:48:46.454Z,99257.62
2022-12-14T22:51:48.612Z,99245.97
2022-12-14T22:54:51.013Z,99261.94
2022-12-14T22:57:54.102Z,99263.19
2022-12-14T23:00:56.858Z,99236.28
2022-12-14T23:03:59.340Z,99250.09
2022-12-14T23:07:01.874Z,99251.16
2022-12-14T23:10:23.180Z,99253.31
2022-12-14T23:13:44.063Z,99248.22
2022-12-14T23:17:04.888Z,99247.34
2022-12-14T23:20:26.473Z,99247.06
2022-12-14T23:23:47.232Z,99237.00
2022-12-14T23:27:09.850Z,99254.78
2022-12-14T23:30:30.674Z,99257.69
2022-12-14T23:33:52.507Z,99266.88
2022-12-14T23:37:19.564Z,99257.28
2022-12-14T23:40:41.121Z,99252.72
2022-12-14T23:44:03.072Z,99254.16
2022-12-14T23:47:23.951Z,99267.69
2022-12-14T23:50:44.448Z,99274.28
2022-12-14T23:54:05.257Z,99265.06
2022-12-14T23:57:26.319Z,99274.06
